createdAt,value
2022-09-12T00:01:19.535Z,2.85
2022-09-12T00:04:21.683Z,3.05
2022-09-12T00:07:23.634Z,2.70
2022-09-12T00:10:25.984Z,2.85
2022-09-12T00:13:27.907Z,2.80
2022-09-12T00:16:32.414Z,3.40
2022-09-12T00:19:34.403Z,2.90
2022-09-12T00:22:37.192Z,3.13
2022-09-12T00:25:43.681Z,3.20
2022-09-12T00:28:45.772Z,3.05
2022-09-12T00:31:48.149Z,3.10
2022-09-12T00:34:50.044Z,3.47
2022-09-12T00:37:52.001Z,3.50
2022-09-12T00:40:53.939Z,3.00
2022-09-12T00:44:01.765Z,2.80
2022-09-12T00:47:18.200Z,3.30
2022-09-12T00:50:20.303Z,2.67
2022-09-12T00:53:22.439Z,3.17
2022-09-12T00:56:24.704Z,2.75
2022-09-12T00:59:44.636Z,2.90
2022-09-12T01:02:54.216Z,2.42
2022-09-12T01:05:59.076Z,3.20
2022-09-12T01:09:04.239Z,2.70
2022-09-12T01:12:06.466Z,2.83
2022-09-12T01:15:09.045Z,2.90
2022-09-12T01:18:25.005Z,2.85
2022-09-12T01:21:42.689Z,3.05
2022-09-12T01:25:09.785Z,2.67
2022-09-12T01:28:42.113Z,2.63
2022-09-12T01:32:19.672Z,2.58
2022-09-12T01:35:31.228Z,2.40
2022-09-12T01:38:50.367Z,2.60
2022-09-12T01:41:54.557Z,2.77
2022-09-12T01:45:03.342Z,2.58
2022-09-12T01:48:14.955Z,2.67
2022-09-12T01:51:29.833Z,2.15
2022-09-12T01:54:50.383Z,2.50
2022-09-12T01:58:42.053Z,2.43
2022-09-12T02:02:00.725Z,2.58
2022-09-12T02:05:31.744Z,2.22
2022-09-12T02:08:42.653Z,2.20
2022-09-12T02:11:46.124Z,2.25
2022-09-12T02:14:53.784Z,2.30
2022-09-12T02:17:58.732Z,2.40
2022-09-12T02:21:03.715Z,2.25
2022-09-12T02:24:09.200Z,2.30
2022-09-12T02:27:20.810Z,2.03
2022-09-12T02:30:23.421Z,2.30
2022-09-12T02:33:32.566Z,2.20
2022-09-12T02:36:51.905Z,2.50
2022-09-12T02:39:55.993Z,2.50
2022-09-12T02:42:58.560Z,2.38
2022-09-12T02:46:00.553Z,2.50
2022-09-12T02:49:02.856Z,2.50
2022-09-12T02:52:04.878Z,2.20
2022-09-12T02:55:07.838Z,2.30
2022-09-12T02:58:16.068Z,2.70
2022-09-12T03:01:27.056Z,2.20
2022-09-12T03:04:38.153Z,2.55
2022-09-12T03:07:43.148Z,2.55
2022-09-12T03:11:06.115Z,2.13
2022-09-12T03:14:35.939Z,2.65
2022-09-12T03:17:49.977Z,2.60
2022-09-12T03:21:03.162Z,2.60
2022-09-12T03:24:24.424Z,2.92
2022-09-12T03:27:33.252Z,2.65
2022-09-12T03:30:41.672Z,2.78
2022-09-12T03:33:44.055Z,2.97
2022-09-12T03:36:46.091Z,2.83
2022-09-12T03:39:48.086Z,3.10
2022-09-12T03:42:50.043Z,3.22
2022-09-12T03:45:53.431Z,3.70
2022-09-12T03:48:55.473Z,3.07
2022-09-12T03:51:57.408Z,3.13
2022-09-12T03:54:59.323Z,3.38
2022-09-12T03:58:01.310Z,3.53
2022-09-12T04:01:12.807Z,3.25
2022-09-12T04:04:14.911Z,3.20
2022-09-12T04:07:17.361Z,3.80
2022-09-12T04:10:19.492Z,3.33
2022-09-12T04:13:21.623Z,3.60
2022-09-12T04:16:23.583Z,4.28
2022-09-12T04:19:26.564Z,3.90
2022-09-12T04:22:29.927Z,4.15
2022-09-12T04:25:31.808Z,4.65
2022-09-12T04:28:36.298Z,4.20
2022-09-12T04:31:38.716Z,5.40
2022-09-12T04:34:40.660Z,4.40
2022-09-12T04:37:42.728Z,4.10
2022-09-12T04:40:44.655Z,4.55
2022-09-12T04:43:48.358Z,4.40
2022-09-12T04:46:50.474Z,3.95
2022-09-12T04:49:52.471Z,4.63
2022-09-12T04:52:55.192Z,4.28
2022-09-12T04:56:02.997Z,4.90
2022-09-12T04:59:05.405Z,5.10
2022-09-12T05:02:07.412Z,4.93
2022-09-12T05:05:10.163Z,4.43
2022-09-12T05:08:12.100Z,4.53
2022-09-12T05:11:17.602Z,4.78
2022-09-12T05:14:20.891Z,5.07
2022-09-12T05:17:22.940Z,4.72
2022-09-12T05:20:24.889Z,5.67
2022-09-12T05:23:28.031Z,4.03
2022-09-12T05:26:29.945Z,3.67
2022-09-12T05:29:31.964Z,4.55
2022-09-12T05:32:33.926Z,4.15
2022-09-12T05:35:38.017Z,3.93
2022-09-12T05:38:40.517Z,4.30
2022-09-12T05:41:43.865Z,3.60
2022-09-12T05:44:45.965Z,3.47
2022-09-12T05:47:48.239Z,3.70
2022-09-12T05:50:50.159Z,3.33
2022-09-12T05:53:57.088Z,3.05
2022-09-12T05:56:59.047Z,3.17
2022-09-12T06:00:01.243Z,3.05
2022-09-12T06:03:03.292Z,3.53
2022-09-12T06:06:06.694Z,3.83
2022-09-12T06:09:09.186Z,3.05
2022-09-12T06:12:11.615Z,3.65
2022-09-12T06:15:14.435Z,2.85
2022-09-12T06:18:16.309Z,2.65
2022-09-12T06:21:18.608Z,2.87
2022-09-12T06:24:21.831Z,2.55
2022-09-12T06:27:23.790Z,2.97
2022-09-12T06:30:25.813Z,2.65
2022-09-12T06:33:27.683Z,2.88
2022-09-12T06:36:32.144Z,2.50
2022-09-12T06:39:35.106Z,2.50
2022-09-12T06:42:36.992Z,2.50
2022-09-12T06:45:39.409Z,2.63
2022-09-12T06:48:42.876Z,2.97
2022-09-12T06:51:45.085Z,2.77
2022-09-12T06:54:47.518Z,2.70
2022-09-12T06:57:49.536Z,2.10
2022-09-12T07:00:56.007Z,2.80
2022-09-12T07:04:03.109Z,2.60
2022-09-12T07:07:05.825Z,2.57
2022-09-12T07:10:08.408Z,2.50
2022-09-12T07:13:10.357Z,2.45
2022-09-12T07:16:18.674Z,2.53
2022-09-12T07:19:21.518Z,2.67
2022-09-12T07:22:23.478Z,2.40
2022-09-12T07:25:25.437Z,2.28
2022-09-12T07:28:30.329Z,2.10
2022-09-12T07:31:32.355Z,2.05
2022-09-12T07:34:35.145Z,2.15
2022-09-12T07:37:37.119Z,2.00
2022-09-12T07:40:39.372Z,2.20
2022-09-12T07:43:44.797Z,2.22
2022-09-12T07:46:46.898Z,2.40
2022-09-12T07:49:48.910Z,2.22
2022-09-12T07:52:50.887Z,2.30
2022-09-12T07:55:55.169Z,2.00
2022-09-12T07:58:57.433Z,2.20
2022-09-12T08:01:59.414Z,2.20
2022-09-12T08:05:02.351Z,1.67
2022-09-12T08:08:04.562Z,2.13
2022-09-12T08:11:09.637Z,2.20
2022-09-12T08:14:11.608Z,1.90
2022-09-12T08:17:14.342Z,1.90
2022-09-12T08:20:17.616Z,1.98
2022-09-12T08:23:21.288Z,1.70
2022-09-12T08:26:23.776Z,1.90
2022-09-12T08:29:25.761Z,2.17
2022-09-12T08:32:27.694Z,1.67
2022-09-12T08:35:30.080Z,1.73
2022-09-12T08:38:33.535Z,1.40
2022-09-12T08:41:39.780Z,1.70
2022-09-12T08:44:41.663Z,1.70
2022-09-12T08:47:46.190Z,1.60
2022-09-12T08:50:49.908Z,1.65
2022-09-12T08:53:55.967Z,1.60
2022-09-12T08:57:03.940Z,1.45
2022-09-12T09:00:12.657Z,1.50
2022-09-12T09:03:35.671Z,1.60
2022-09-12T09:06:59.328Z,1.20
2022-09-12T09:10:19.919Z,1.50
2022-09-12T09:13:59.224Z,1.40
2022-09-12T09:17:03.337Z,1.52
2022-09-12T09:20:33.346Z,1.50
2022-09-12T09:23:40.763Z,2.05
2022-09-12T09:26:52.476Z,1.50
2022-09-12T09:29:56.291Z,1.40
2022-09-12T09:33:01.346Z,1.58
2022-09-12T09:36:20.477Z,1.38
2022-09-12T09:39:34.537Z,1.58
2022-09-12T09:43:02.844Z,1.10
2022-09-12T09:46:05.425Z,1.45
2022-09-12T09:49:12.770Z,1.33
2022-09-12T09:52:16.935Z,1.25
2022-09-12T09:55:23.482Z,1.42
2022-09-12T09:58:31.087Z,1.30
2022-09-12T10:01:34.170Z,1.40
2022-09-12T10:04:41.585Z,1.88
2022-09-12T10:07:50.434Z,1.40
2022-09-12T10:11:00.623Z,1.40
2022-09-12T10:14:04.527Z,1.33
2022-09-12T10:17:40.058Z,1.20
2022-09-12T10:20:45.898Z,1.27
2022-09-12T10:23:52.934Z,1.33
2022-09-12T10:27:09.103Z,1.40
2022-09-12T10:30:21.930Z,1.20
2022-09-12T10:33:26.212Z,0.95
2022-09-12T10:36:37.366Z,1.52
2022-09-12T10:39:39.772Z,1.10
2022-09-12T10:42:52.856Z,1.50
2022-09-12T10:45:59.856Z,1.03
2022-09-12T10:49:25.712Z,1.00
2022-09-12T10:52:28.532Z,1.45
2022-09-12T10:55:35.006Z,1.20
2022-09-12T10:58:55.046Z,1.90
2022-09-12T11:02:23.265Z,1.17
2022-09-12T11:05:58.425Z,1.20
2022-09-12T11:09:23.716Z,1.10
2022-09-12T11:12:53.021Z,1.30
2022-09-12T11:16:10.481Z,1.40
2022-09-12T11:19:43.274Z,1.30
2022-09-12T11:23:04.540Z,0.90
2022-09-12T11:26:07.688Z,1.00
2022-09-12T11:29:28.490Z,1.10
2022-09-12T11:33:05.694Z,1.17
2022-09-12T11:36:19.081Z,1.20
2022-09-12T11:39:38.645Z,1.00
2022-09-12T11:42:41.497Z,1.20
2022-09-12T11:45:45.945Z,1.00
2022-09-12T11:49:02.622Z,1.27
2022-09-12T11:52:11.857Z,1.30
2022-09-12T11:55:21.472Z,1.20
2022-09-12T11:58:27.288Z,1.42
2022-09-12T12:01:42.895Z,1.17
2022-09-12T12:05:07.948Z,1.20
2022-09-12T12:08:10.953Z,1.10
2022-09-12T12:11:16.403Z,1.30
2022-09-12T12:14:26.972Z,1.30
2022-09-12T12:17:29.733Z,1.00
2022-09-12T12:20:32.123Z,1.20
2022-09-12T12:23:35.346Z,1.20
2022-09-12T12:26:43.159Z,1.30
2022-09-12T12:29:45.348Z,1.23
2022-09-12T12:32:47.372Z,1.33
2022-09-12T12:36:10.403Z,1.27
2022-09-12T12:39:41.265Z,1.50
2022-09-12T12:42:43.955Z,1.50
2022-09-12T12:45:48.474Z,1.52
2022-09-12T12:49:03.755Z,1.50
2022-09-12T12:52:05.831Z,1.65
2022-09-12T12:55:16.662Z,1.70
2022-09-12T12:58:35.168Z,1.35
2022-09-12T13:01:41.189Z,1.30
2022-09-12T13:04:44.866Z,1.35
2022-09-12T13:07:48.344Z,1.83
2022-09-12T13:11:01.298Z,1.80
2022-09-12T13:14:07.190Z,1.40
2022-09-12T13:17:36.191Z,1.60
2022-09-12T13:21:05.261Z,1.67
2022-09-12T13:24:16.135Z,1.70
2022-09-12T13:27:19.504Z,1.57
2022-09-12T13:30:22.036Z,1.50
2022-09-12T13:33:53.183Z,1.20
2022-09-12T13:37:31.162Z,1.80
2022-09-12T13:40:48.505Z,1.50
2022-09-12T13:43:51.100Z,1.37
2022-09-12T13:46:54.088Z,1.45
2022-09-12T13:49:57.685Z,1.50
2022-09-12T13:53:03.944Z,1.40
2022-09-12T13:56:06.539Z,1.25
2022-09-12T13:59:13.359Z,1.20
2022-09-12T14:02:20.249Z,1.10
2022-09-12T14:05:26.091Z,1.30
2022-09-12T14:08:28.121Z,0.85
2022-09-12T14:11:33.809Z,1.00
2022-09-12T14:14:42.181Z,1.00
2022-09-12T14:17:51.845Z,1.10
2022-09-12T14:21:01.296Z,1.15
2022-09-12T14:24:06.785Z,1.02
2022-09-12T14:27:10.530Z,1.00
2022-09-12T14:30:26.252Z,0.90
2022-09-12T14:33:29.575Z,1.10
2022-09-12T14:36:35.365Z,1.15
2022-09-12T14:39:40.160Z,0.95
2022-09-12T14:42:42.990Z,0.80
2022-09-12T14:45:52.763Z,1.07
2022-09-12T14:49:02.109Z,0.85
2022-09-12T14:52:27.720Z,0.98
2022-09-12T14:55:33.004Z,0.80
2022-09-12T14:58:35.560Z,0.90
2022-09-12T15:01:37.645Z,0.90
2022-09-12T15:04:41.625Z,0.90
2022-09-12T15:08:03.945Z,0.88
2022-09-12T15:11:07.395Z,1.08
2022-09-12T15:14:13.465Z,1.17
2022-09-12T15:17:15.373Z,0.90
2022-09-12T15:20:17.387Z,0.98
2022-09-12T15:23:47.081Z,1.10
2022-09-12T15:26:49.261Z,0.93
2022-09-12T15:29:51.207Z,0.80
2022-09-12T15:32:53.311Z,0.90
2022-09-12T15:35:55.423Z,0.82
2022-09-12T15:38:58.353Z,1.00
2022-09-12T15:42:00.264Z,1.30
2022-09-12T15:45:02.918Z,0.70
2022-09-12T15:48:04.981Z,0.70
2022-09-12T15:51:15.924Z,0.77
2022-09-12T15:54:19.535Z,0.90
2022-09-12T15:57:21.504Z,0.77
2022-09-12T16:00:23.656Z,0.70
2022-09-12T16:03:28.194Z,0.90
2022-09-12T16:06:36.322Z,0.88
2022-09-12T16:09:39.221Z,1.10
2022-09-12T16:12:44.202Z,0.50
2022-09-12T16:15:46.196Z,0.80
2022-09-12T16:18:48.330Z,0.80
2022-09-12T16:21:50.462Z,1.00
2022-09-12T16:24:52.435Z,0.73
2022-09-12T16:27:54.510Z,0.85
2022-09-12T16:31:07.422Z,0.80
2022-09-12T16:34:11.007Z,0.73
2022-09-12T16:37:12.974Z,0.82
2022-09-12T16:40:17.892Z,0.80
2022-09-12T16:43:20.462Z,0.75
2022-09-12T16:46:25.466Z,0.80
2022-09-12T16:49:27.381Z,0.73
2022-09-12T16:52:30.259Z,1.00
2022-09-12T16:55:32.543Z,0.75
2022-09-12T16:58:41.913Z,1.13
2022-09-12T17:01:45.224Z,0.90
2022-09-12T17:04:47.379Z,0.80
2022-09-12T17:07:49.372Z,0.90
2022-09-12T17:10:51.810Z,1.00
2022-09-12T17:14:11.363Z,0.93
2022-09-12T17:17:13.643Z,1.25
2022-09-12T17:20:15.632Z,0.90
2022-09-12T17:23:17.889Z,1.33
2022-09-12T17:26:20.800Z,1.40
2022-09-12T17:29:22.978Z,2.20
2022-09-12T17:32:25.004Z,3.00
2022-09-12T17:35:27.331Z,4.17
2022-09-12T17:38:32.120Z,3.42
2022-09-12T17:41:34.137Z,4.78
2022-09-12T17:44:36.166Z,5.00
2022-09-12T17:47:43.063Z,6.75
2022-09-12T17:50:45.667Z,8.60
2022-09-12T17:53:48.657Z,9.18
2022-09-12T17:56:51.852Z,8.13
2022-09-12T17:59:53.778Z,6.60
2022-09-12T18:02:56.049Z,5.55
2022-09-12T18:05:57.990Z,5.47
2022-09-12T18:09:02.315Z,5.43
2022-09-12T18:12:05.125Z,5.55
2022-09-12T18:15:07.965Z,7.80
2022-09-12T18:18:10.193Z,8.70
2022-09-12T18:21:12.588Z,8.77
2022-09-12T18:24:14.964Z,9.10
2022-09-12T18:27:16.889Z,10.18
2022-09-12T18:30:23.433Z,11.02
2022-09-12T18:33:25.582Z,11.65
2022-09-12T18:36:28.977Z,12.17
2022-09-12T18:39:30.905Z,12.20
2022-09-12T18:42:32.897Z,9.75
2022-09-12T18:45:35.788Z,7.68
2022-09-12T18:48:38.074Z,6.07
2022-09-12T18:51:41.832Z,4.43
2022-09-12T18:54:43.840Z,2.90
2022-09-12T18:57:46.376Z,2.60
2022-09-12T19:00:49.612Z,1.70
2022-09-12T19:03:52.388Z,1.83
2022-09-12T19:06:54.392Z,1.90
2022-09-12T19:09:56.474Z,2.85
2022-09-12T19:12:59.741Z,7.00
2022-09-12T19:16:02.600Z,7.90
2022-09-12T19:19:04.707Z,7.85
2022-09-12T19:22:06.717Z,3.43
2022-09-12T19:25:09.028Z,2.25
2022-09-12T19:28:13.730Z,1.80
2022-09-12T19:31:19.105Z,1.65
2022-09-12T19:34:21.186Z,1.38
2022-09-12T19:37:23.173Z,1.60
2022-09-12T19:40:25.435Z,1.67
2022-09-12T19:43:28.081Z,1.65
2022-09-12T19:46:30.044Z,1.70
2022-09-12T19:49:32.267Z,1.80
2022-09-12T19:52:34.182Z,1.80
2022-09-12T19:55:36.659Z,1.77
2022-09-12T19:58:41.427Z,1.58
2022-09-12T20:01:43.455Z,1.38
2022-09-12T20:04:45.565Z,4.70
2022-09-12T20:07:47.692Z,4.63
2022-09-12T20:10:52.803Z,4.55
2022-09-12T20:13:57.052Z,5.45
2022-09-12T20:16:58.987Z,5.60
2022-09-12T20:20:01.054Z,4.50
2022-09-12T20:23:03.064Z,4.03
2022-09-12T20:26:05.201Z,3.85
2022-09-12T20:29:08.387Z,2.22
2022-09-12T20:32:10.527Z,2.20
2022-09-12T20:35:12.456Z,1.90
2022-09-12T20:38:14.491Z,1.77
2022-09-12T20:41:17.566Z,1.70
2022-09-12T20:44:20.083Z,1.58
2022-09-12T20:47:22.075Z,1.10
2022-09-12T20:50:24.080Z,1.15
2022-09-12T20:53:26.023Z,1.10
2022-09-12T20:56:28.710Z,1.30
2022-09-12T20:59:30.974Z,1.30
2022-09-12T21:02:33.041Z,1.40
2022-09-12T21:05:35.034Z,1.42
2022-09-12T21:08:38.629Z,1.03
2022-09-12T21:11:40.959Z,1.30
2022-09-12T21:14:42.840Z,1.50
2022-09-12T21:17:44.826Z,1.50
2022-09-12T21:20:52.734Z,1.70
2022-09-12T21:23:58.557Z,1.63
2022-09-12T21:27:04.144Z,1.60
2022-09-12T21:30:07.031Z,1.63
2022-09-12T21:33:09.417Z,1.80
2022-09-12T21:36:11.692Z,1.77
2022-09-12T21:39:14.544Z,1.50
2022-09-12T21:42:16.526Z,1.77
2022-09-12T21:45:19.268Z,1.60
2022-09-12T21:48:21.210Z,1.73
2022-09-12T21:51:23.178Z,2.00
2022-09-12T21:54:25.071Z,1.50
2022-09-12T21:57:26.989Z,1.52
2022-09-12T22:00:28.943Z,1.67
2022-09-12T22:03:31.024Z,2.92
2022-09-12T22:06:32.965Z,3.45
2022-09-12T22:09:35.457Z,3.47
2022-09-12T22:12:37.388Z,5.60
2022-09-12T22:15:40.825Z,5.95
2022-09-12T22:18:42.924Z,5.63
2022-09-12T22:22:03.347Z,6.25
2022-09-12T22:25:05.704Z,4.87
2022-09-12T22:28:07.727Z,5.10
2022-09-12T22:31:11.808Z,5.30
2022-09-12T22:34:14.394Z,4.80
2022-09-12T22:37:17.887Z,4.25
2022-09-12T22:40:19.997Z,3.63
2022-09-12T22:43:21.940Z,3.35
2022-09-12T22:46:24.424Z,2.78
2022-09-12T22:49:26.421Z,2.80
2022-09-12T22:52:28.402Z,2.60
2022-09-12T22:55:30.427Z,2.57
2022-09-12T22:58:33.780Z,2.70
2022-09-12T23:01:35.929Z,2.60
2022-09-12T23:04:37.961Z,2.60
2022-09-12T23:07:40.079Z,2.08
2022-09-12T23:10:42.364Z,1.70
2022-09-12T23:13:46.666Z,2.15
2022-09-12T23:16:48.628Z,2.15
2022-09-12T23:19:50.624Z,2.30
2022-09-12T23:22:52.636Z,2.50
2022-09-12T23:26:10.201Z,2.40
2022-09-12T23:29:12.175Z,2.05
2022-09-12T23:32:14.125Z,2.30
2022-09-12T23:35:19.788Z,2.40
2022-09-12T23:38:21.871Z,2.20
2022-09-12T23:41:24.097Z,2.40
2022-09-12T23:44:26.539Z,2.53
2022-09-12T23:47:28.495Z,2.17
2022-09-12T23:50:30.582Z,2.15
2022-09-12T23:53:33.060Z,2.47
2022-09-12T23:56:35.064Z,2.33
2022-09-12T23:59:37.057Z,2.20
